UGSB/BUS METAR and TAF weather

Enter ICAO airport designator
Station Type Date Time Source
UGSB METAR 2020/01/23 21:00 UTC NOAA

UGSB 232100Z 28021G32KT 9999 -SHRA SCT013 BKN024CB 06/02 Q1022 R13/////// NOSIG


Station Type Date Time Source
UGSB Decoded METAR 2020/01/23 21:00 UTC NOAA

Station name not available
Jan 23, 2020 - 04:00 PM EST / 2020.01.23 2100 UTC
Wind: from the W (280 degrees) at 24 MPH (21 KT) gusting to 37 MPH (32 KT):0
Visibility: greater than 7 mile(s):0
Sky conditions: mostly cloudy
Weather: light rain showers; Cumulonimbus clouds observed
Temperature: 42 F (6 C)
Dew Point: 35 F (2 C)
Relative Humidity: 75%
Pressure (altimeter): 30.18 in. Hg (1022 hPa)
ob: UGSB 232100Z 28021G32KT 9999 -SHRA SCT013 BKN024CB 06/02 Q1022 R13/////// NOSIG
cycle: 21

Station Type Date Time Source
UGSB TAF 2020/01/23 18:23 UTC NOAA

TAF COR UGSB 231700Z 2318/2418 23015KT 7000 -SHRA SCT020CB OVC040 TX07/2319Z TN03/2400Z
TEMPO 2318/2324 26025G35KT 3000 TSRA SCT012 BKN020CB
TEMPO 2400/2412 26018G28KT 2500 SHSNRA SCT005 BKN015CB
TEMPO 2412/2418 2500 SHSNRA SCT005 BKN015CB

Example: see airport list